createdAt,value
2022-09-26T00:00:17.373Z,11.90
2022-09-26T00:04:25.275Z,11.67
2022-09-26T00:08:29.086Z,14.80
2022-09-26T00:12:30.761Z,13.03
2022-09-26T00:16:32.739Z,12.00
2022-09-26T00:20:36.715Z,11.70
2022-09-26T00:24:38.543Z,11.23
2022-09-26T00:28:40.580Z,13.00
2022-09-26T00:32:42.753Z,12.40
2022-09-26T00:36:44.629Z,11.83
2022-09-26T00:40:46.826Z,13.17
2022-09-26T00:44:56.743Z,13.33
2022-09-26T00:49:24.365Z,15.10
2022-09-26T00:53:31.246Z,11.77
2022-09-26T00:57:41.425Z,12.80
2022-09-26T01:01:43.255Z,14.47
2022-09-26T01:05:47.120Z,15.40
2022-09-26T01:09:48.964Z,15.33
2022-09-26T01:13:53.858Z,16.47
2022-09-26T01:17:55.654Z,18.40
2022-09-26T01:22:18.435Z,15.27
2022-09-26T01:27:03.183Z,15.93
2022-09-26T01:31:20.215Z,15.07
2022-09-26T01:35:43.393Z,16.63
2022-09-26T01:40:17.265Z,14.33
2022-09-26T01:44:41.492Z,16.53
2022-09-26T01:48:45.782Z,14.60
2022-09-26T01:53:06.094Z,13.03
2022-09-26T01:57:13.854Z,13.10
2022-09-26T02:01:16.162Z,9.83
2022-09-26T02:05:40.074Z,11.70
2022-09-26T02:09:55.106Z,9.53
2022-09-26T02:14:28.065Z,9.60
2022-09-26T02:18:55.076Z,9.93
2022-09-26T02:22:58.444Z,10.27
2022-09-26T02:27:00.184Z,7.73
2022-09-26T02:31:03.215Z,5.50
2022-09-26T02:35:34.726Z,5.37
2022-09-26T02:39:37.053Z,5.43
2022-09-26T02:44:29.657Z,5.90
2022-09-26T02:48:38.932Z,6.90
2022-09-26T02:52:58.684Z,3.63
2022-09-26T02:57:15.723Z,5.53
2022-09-26T03:01:31.022Z,4.77
2022-09-26T03:05:32.951Z,5.70
2022-09-26T03:09:35.001Z,7.73
2022-09-26T03:13:38.339Z,5.67
2022-09-26T03:17:46.074Z,7.07
2022-09-26T03:21:47.976Z,6.73
2022-09-26T03:26:02.508Z,7.53
2022-09-26T03:30:05.386Z,6.47
2022-09-26T03:34:07.098Z,6.63
2022-09-26T03:38:13.627Z,5.10
2022-09-26T03:42:16.754Z,4.03
2022-09-26T03:46:18.735Z,5.03
2022-09-26T03:50:20.590Z,4.30
2022-09-26T03:54:22.699Z,4.67
2022-09-26T03:58:24.408Z,4.27
2022-09-26T04:02:28.514Z,4.83
2022-09-26T04:06:30.431Z,4.90
2022-09-26T04:10:33.149Z,5.40
2022-09-26T04:14:35.056Z,6.13
2022-09-26T04:18:37.084Z,8.30
2022-09-26T04:22:38.801Z,7.97
2022-09-26T04:26:41.860Z,6.60
2022-09-26T04:30:43.661Z,7.23
2022-09-26T04:34:45.422Z,8.93
2022-09-26T04:38:47.359Z,9.30
2022-09-26T04:42:49.141Z,8.93
2022-09-26T04:46:50.834Z,9.23
2022-09-26T04:50:52.595Z,8.67
2022-09-26T04:54:54.358Z,9.03
2022-09-26T04:58:57.304Z,10.87
2022-09-26T05:02:59.851Z,11.47
2022-09-26T05:07:05.154Z,10.40
2022-09-26T05:11:07.278Z,9.97
2022-09-26T05:15:20.957Z,11.33
2022-09-26T05:19:23.581Z,10.57
2022-09-26T05:23:45.486Z,9.93
2022-09-26T05:27:48.089Z,9.07
2022-09-26T05:31:51.557Z,8.63
2022-09-26T05:35:54.272Z,9.77
2022-09-26T05:40:14.953Z,8.73
2022-09-26T05:44:16.883Z,10.47
2022-09-26T05:48:19.427Z,9.93
2022-09-26T05:52:22.967Z,8.57
2022-09-26T05:56:25.346Z,11.00
2022-09-26T06:01:15.976Z,12.30
2022-09-26T06:05:17.870Z,11.00
2022-09-26T06:09:23.201Z,10.03
2022-09-26T06:13:25.364Z,8.63
2022-09-26T06:17:27.529Z,9.97
2022-09-26T06:21:35.128Z,6.47
2022-09-26T06:25:37.017Z,6.47
2022-09-26T06:29:39.304Z,6.57
2022-09-26T06:33:41.505Z,7.10
2022-09-26T06:38:05.670Z,8.27
2022-09-26T06:42:51.288Z,6.97
2022-09-26T06:47:00.006Z,6.33
2022-09-26T06:51:17.555Z,9.90
2022-09-26T06:55:19.502Z,7.27
2022-09-26T06:59:43.905Z,8.40
2022-09-26T07:03:46.239Z,7.87
2022-09-26T07:07:50.864Z,7.73
2022-09-26T07:12:14.606Z,8.70
2022-09-26T07:16:19.841Z,7.33
2022-09-26T07:20:21.958Z,7.43
2022-09-26T07:24:29.681Z,8.50
2022-09-26T07:28:31.625Z,8.50
2022-09-26T07:32:37.631Z,8.43
2022-09-26T07:36:58.629Z,9.67
2022-09-26T07:41:18.976Z,11.73
2022-09-26T07:45:43.423Z,10.80
2022-09-26T07:50:03.884Z,9.27
2022-09-26T07:54:06.520Z,9.40
2022-09-26T07:58:08.675Z,8.50
2022-09-26T08:08:08.741Z,7.50
2022-09-26T08:17:35.945Z,7.53
2022-09-26T08:21:38.124Z,7.07
2022-09-26T08:25:40.681Z,7.30
2022-09-26T08:29:42.576Z,7.40
2022-09-26T08:33:44.505Z,6.80
2022-09-26T08:44:03.947Z,9.67
2022-09-26T08:48:45.208Z,10.73
2022-09-26T08:53:06.123Z,7.03
2022-09-26T08:57:32.831Z,5.43
2022-09-26T09:01:39.378Z,5.53
2022-09-26T09:06:11.453Z,4.27
2022-09-26T09:10:18.008Z,3.43
2022-09-26T09:19:39.317Z,2.37
2022-09-26T09:29:50.192Z,3.13
2022-09-26T10:06:53.408Z,2.30
2022-09-26T11:15:10.774Z,1.80
2022-09-26T11:19:57.863Z,2.23
2022-09-26T11:24:30.464Z,1.80
2022-09-26T11:28:52.171Z,1.90
2022-09-26T11:32:56.389Z,2.30
2022-09-26T11:37:48.129Z,2.73
2022-09-26T11:42:45.292Z,1.97
2022-09-26T11:47:33.871Z,1.93
2022-09-26T11:51:52.513Z,3.80
2022-09-26T11:56:08.055Z,3.17
2022-09-26T12:01:04.664Z,2.33
2022-09-26T12:05:41.512Z,2.87
2022-09-26T12:10:04.384Z,2.73
2022-09-26T12:14:45.620Z,3.13
2022-09-26T12:18:55.270Z,1.40
2022-09-26T12:23:17.164Z,1.63
2022-09-26T12:27:45.460Z,2.20
2022-09-26T12:32:01.882Z,1.80
2022-09-26T12:36:48.074Z,1.90
2022-09-26T12:41:20.107Z,1.73
2022-09-26T12:45:53.703Z,1.00
2022-09-26T12:51:11.943Z,4.00
2022-09-26T12:55:19.945Z,1.67
2022-09-26T12:59:52.665Z,1.70
2022-09-26T13:04:01.635Z,1.93
2022-09-26T13:20:49.203Z,1.80
2022-09-26T13:25:09.095Z,0.80
2022-09-26T13:29:21.649Z,1.23
2022-09-26T13:33:27.691Z,0.67
2022-09-26T13:37:57.819Z,0.70
2022-09-26T13:42:28.557Z,1.47
2022-09-26T13:47:33.919Z,1.67
2022-09-26T13:52:04.744Z,0.90
2022-09-26T13:56:52.413Z,1.20
2022-09-26T14:01:35.846Z,1.43
2022-09-26T14:06:04.887Z,1.10
2022-09-26T14:10:19.032Z,1.27
2022-09-26T14:15:43.375Z,0.70
2022-09-26T16:05:18.309Z,1.00
2022-09-26T16:09:36.442Z,3.03
2022-09-26T16:13:47.066Z,1.20
2022-09-26T16:17:53.761Z,2.13
2022-09-26T16:21:56.505Z,2.27
2022-09-26T16:25:59.299Z,2.10
2022-09-26T16:30:04.968Z,1.73
2022-09-26T16:34:19.939Z,2.70
2022-09-26T16:38:37.159Z,2.43
2022-09-26T16:42:48.899Z,2.70
2022-09-26T16:46:52.093Z,2.53
2022-09-26T16:51:27.950Z,2.53
2022-09-26T16:55:58.417Z,3.00
2022-09-26T17:29:10.511Z,3.07
2022-09-26T17:33:43.747Z,4.00
2022-09-26T17:37:57.535Z,1.90
2022-09-26T17:42:13.569Z,4.20
2022-09-26T17:46:49.489Z,2.97
2022-09-26T17:50:53.676Z,2.70
2022-09-26T17:54:57.537Z,4.83
2022-09-26T17:58:59.750Z,2.23
2022-09-26T18:03:04.203Z,3.50
2022-09-26T18:07:23.176Z,2.23
2022-09-26T18:11:34.704Z,2.13
2022-09-26T18:15:37.495Z,3.30
2022-09-26T18:19:39.432Z,2.50
2022-09-26T18:24:05.242Z,3.30
2022-09-26T18:33:22.776Z,3.00
2022-09-26T18:37:29.721Z,1.73
2022-09-26T18:41:31.964Z,2.27
2022-09-26T18:45:42.261Z,2.63
2022-09-26T18:49:47.372Z,2.97
2022-09-26T18:53:51.717Z,3.43
2022-09-26T18:58:24.228Z,3.27
2022-09-26T19:02:51.433Z,1.60
2022-09-26T19:07:09.303Z,2.10
2022-09-26T19:11:24.081Z,2.07
2022-09-26T19:15:31.583Z,2.87
2022-09-26T19:19:38.839Z,2.20
2022-09-26T19:28:07.057Z,4.73
2022-09-26T19:32:30.426Z,3.73
2022-09-26T19:36:33.671Z,3.50
2022-09-26T19:40:44.998Z,2.70
2022-09-26T19:49:25.696Z,2.43
2022-09-26T19:53:40.096Z,3.90
2022-09-26T19:57:51.662Z,3.57
2022-09-26T20:02:11.851Z,4.77
2022-09-26T20:06:21.409Z,3.07
2022-09-26T20:10:34.501Z,3.97
2022-09-26T20:15:03.526Z,7.03
2022-09-26T20:19:10.845Z,4.63
2022-09-26T20:23:19.483Z,5.23
2022-09-26T20:27:24.016Z,4.73
2022-09-26T20:31:27.978Z,4.23
2022-09-26T20:35:35.336Z,4.43
2022-09-26T20:39:37.489Z,4.23
2022-09-26T20:43:40.577Z,5.17
2022-09-26T20:47:45.514Z,4.90
2022-09-26T20:51:47.792Z,5.37
2022-09-26T20:55:52.451Z,4.53
2022-09-26T20:59:57.178Z,3.60
2022-09-26T21:03:59.168Z,5.40
2022-09-26T21:08:01.288Z,6.20
2022-09-26T21:12:05.969Z,7.40
2022-09-26T21:16:14.092Z,5.23
2022-09-26T21:20:32.155Z,6.43
2022-09-26T21:24:35.135Z,5.10
2022-09-26T21:28:36.891Z,5.70
2022-09-26T21:32:38.632Z,5.80
2022-09-26T21:36:40.412Z,7.20
2022-09-26T21:40:43.128Z,4.50
2022-09-26T21:44:52.230Z,5.40
2022-09-26T21:48:54.067Z,7.70
2022-09-26T21:53:10.630Z,3.80
2022-09-26T21:57:22.426Z,5.10
2022-09-26T22:01:24.308Z,4.87
2022-09-26T22:05:26.177Z,4.47
2022-09-26T22:09:27.907Z,5.57
2022-09-26T22:13:30.246Z,4.77
2022-09-26T22:17:34.730Z,6.27
2022-09-26T22:21:36.502Z,6.43
2022-09-26T22:25:42.637Z,6.40
2022-09-26T22:29:44.758Z,4.63
2022-09-26T22:33:46.605Z,4.30
2022-09-26T22:37:48.513Z,4.20
2022-09-26T22:41:50.313Z,6.87
2022-09-26T22:45:52.231Z,6.57
2022-09-26T22:49:54.268Z,4.73
2022-09-26T22:53:56.121Z,6.20
2022-09-26T22:57:57.971Z,7.47
2022-09-26T23:01:59.864Z,6.17
2022-09-26T23:06:01.846Z,4.77
2022-09-26T23:10:03.760Z,3.63
2022-09-26T23:14:05.487Z,3.93
2022-09-26T23:18:07.321Z,2.33
2022-09-26T23:22:09.132Z,2.30
2022-09-26T23:26:23.361Z,2.47
2022-09-26T23:30:25.187Z,2.77
2022-09-26T23:34:26.987Z,4.30
2022-09-26T23:38:28.853Z,2.63
2022-09-26T23:42:30.633Z,2.70
2022-09-26T23:46:32.438Z,1.20
2022-09-26T23:50:34.384Z,1.80
2022-09-26T23:54:36.249Z,1.63
2022-09-26T23:58:38.161Z,2.00
